DAL757 KATL-KPHX
Flight info
| Callsign | DAL757 |
|---|---|
| Flight time | N/A |
| Altitude | 32000 |
| Route | NASSA2 YAALL J14 IRW J6 ZUN EAGUL6 |
| Aircraft | B753/M-SDE2E3FGHIJ3J4J7RWXY/LB1 |
Departure
| Time | N/A |
|---|---|
| Airport | Hartsfield Jackson Atlanta International Airport (KATL) |
Arrival
| Time | 2026-05-06 02:46 |
|---|---|
| Airport | Phoenix Sky Harbor International Airport (KPHX) |
| Time | Latitude | Longitude | Altitude | Speed | Heading |
|---|---|---|---|---|---|
| 2026-05-06 02:45 | 33.44077 | -112.00777 | 1136 ft | 83 kts | 268° |
| 2026-05-06 02:45 | 33.44074 | -112.01248 | 1133 ft | 59 kts | 271° |
| 2026-05-06 02:46 | 33.44080 | -112.01695 | 1129 ft | 42 kts | 270° |
| 2026-05-06 02:46 | 33.44079 | -112.01958 | 1127 ft | 16 kts | 260° |
| 2026-05-06 02:46 | 33.44053 | -112.02020 | 1127 ft | 7 kts | 221° |
| 2026-05-06 02:46 | 33.44013 | -112.02035 | 1127 ft | 5 kts | 175° |
| 2026-05-06 02:47 | 33.43987 | -112.02013 | 1127 ft | 4 kts | 116° |
| 2026-05-06 02:47 | 33.43980 | -112.01974 | 1127 ft | 5 kts | 98° |
| 2026-05-06 02:47 | 33.43978 | -112.01931 | 1127 ft | 6 kts | 93° |
| 2026-05-06 02:47 | 33.43976 | -112.01880 | 1127 ft | 6 kts | 91° |
| 2026-05-06 02:48 | 33.43976 | -112.01823 | 1127 ft | 6 kts | 90° |
| 2026-05-06 02:48 | 33.43977 | -112.01771 | 1128 ft | 5 kts | 90° |
| 2026-05-06 02:48 | 33.43977 | -112.01726 | 1129 ft | 5 kts | 90° |
| 2026-05-06 02:48 | 33.43977 | -112.01682 | 1130 ft | 6 kts | 90° |
| 2026-05-06 02:49 | 33.43976 | -112.01610 | 1130 ft | 10 kts | 90° |
| 2026-05-06 02:49 | 33.43976 | -112.01533 | 1130 ft | 9 kts | 90° |
| 2026-05-06 02:49 | 33.43964 | -112.01462 | 1130 ft | 7 kts | 127° |
| 2026-05-06 02:49 | 33.43933 | -112.01429 | 1131 ft | 5 kts | 136° |
| 2026-05-06 02:50 | 33.43913 | -112.01396 | 1132 ft | 5 kts | 116° |
| 2026-05-06 02:50 | 33.43906 | -112.01369 | 1132 ft | 5 kts | 102° |
| 2026-05-06 02:50 | 33.43903 | -112.01335 | 1133 ft | 5 kts | 92° |
| 2026-05-06 02:50 | 33.43902 | -112.01294 | 1133 ft | 9 kts | 90° |
| 2026-05-06 02:51 | 33.43902 | -112.01221 | 1133 ft | 14 kts | 90° |
| 2026-05-06 02:51 | 33.43902 | -112.01104 | 1133 ft | 17 kts | 90° |
| 2026-05-06 02:51 | 33.43902 | -112.01019 | 1133 ft | 17 kts | 90° |
| 2026-05-06 02:51 | 33.43903 | -112.00882 | 1133 ft | 16 kts | 90° |
| 2026-05-06 02:52 | 33.43903 | -112.00764 | 1135 ft | 14 kts | 90° |
| 2026-05-06 02:52 | 33.43903 | -112.00665 | 1136 ft | 12 kts | 90° |
| 2026-05-06 02:52 | 33.43903 | -112.00566 | 1136 ft | 12 kts | 90° |
| 2026-05-06 02:52 | 33.43880 | -112.00483 | 1136 ft | 10 kts | 140° |
| 2026-05-06 02:53 | 33.43820 | -112.00469 | 1136 ft | 8 kts | 179° |
| 2026-05-06 02:53 | 33.43764 | -112.00469 | 1136 ft | 7 kts | 180° |
| 2026-05-06 02:53 | 33.43685 | -112.00470 | 1136 ft | 13 kts | 181° |
| 2026-05-06 02:53 | 33.43578 | -112.00470 | 1134 ft | 15 kts | 180° |
| 2026-05-06 02:54 | 33.43464 | -112.00471 | 1132 ft | 15 kts | 181° |
| 2026-05-06 02:54 | 33.43372 | -112.00473 | 1132 ft | 14 kts | 180° |
| 2026-05-06 02:54 | 33.43293 | -112.00513 | 1132 ft | 12 kts | 248° |
| 2026-05-06 02:54 | 33.43286 | -112.00603 | 1133 ft | 11 kts | 269° |
| 2026-05-06 02:55 | 33.43286 | -112.00684 | 1133 ft | 10 kts | 269° |
| 2026-05-06 02:55 | 33.43285 | -112.00756 | 1134 ft | 7 kts | 269° |
| 2026-05-06 02:55 | 33.43285 | -112.00811 | 1135 ft | 6 kts | 270° |
| 2026-05-06 02:55 | 33.43285 | -112.00866 | 1134 ft | 7 kts | 271° |
| 2026-05-06 02:56 | 33.43286 | -112.00987 | 1133 ft | 20 kts | 271° |
| 2026-05-06 02:56 | 33.43287 | -112.01119 | 1133 ft | 21 kts | 269° |
| 2026-05-06 02:56 | 33.43308 | -112.01208 | 1132 ft | 4 kts | 330° |
| 2026-05-06 02:56 | 33.43335 | -112.01210 | 1132 ft | 4 kts | 12° |
| 2026-05-06 02:57 | 33.43367 | -112.01194 | 1132 ft | 0 kts | 28° |
| 2026-05-06 02:57 | 33.43374 | -112.01190 | 1132 ft | 0 kts | 28° |
| 2026-05-06 02:57 | 33.43375 | -112.01189 | 1132 ft | 0 kts | 28° |